sensor_id;sensor_type;location;lat;lon;timestamp;temperature;humidity
70986;DHT22;58645;43.068;25.610;2023-07-30T00:01:44;19.20;99.90
70986;DHT22;58645;43.068;25.610;2023-07-30T00:04:10;19.20;99.90
70986;DHT22;58645;43.068;25.610;2023-07-30T00:06:35;19.20;99.90
70986;DHT22;58645;43.068;25.610;2023-07-30T00:09:01;19.10;99.90
70986;DHT22;58645;43.068;25.610;2023-07-30T00:11:27;19.10;99.90
70986;DHT22;58645;43.068;25.610;2023-07-30T00:13:52;19.10;99.90
70986;DHT22;58645;43.068;25.610;2023-07-30T00:16:18;19.10;99.90
70986;DHT22;58645;43.068;25.610;2023-07-30T00:18:44;19.10;99.90
70986;DHT22;58645;43.068;25.610;2023-07-30T00:21:09;19.00;99.90
70986;DHT22;58645;43.068;25.610;2023-07-30T00:23:35;19.00;99.90
70986;DHT22;58645;43.068;25.610;2023-07-30T00:26:01;19.00;99.90
70986;DHT22;58645;43.068;25.610;2023-07-30T00:28:26;19.00;99.90
70986;DHT22;58645;43.068;25.610;2023-07-30T00:30:52;18.90;99.90
70986;DHT22;58645;43.068;25.610;2023-07-30T00:33:18;18.80;99.90
70986;DHT22;58645;43.068;25.610;2023-07-30T00:35:44;18.80;99.90
70986;DHT22;58645;43.068;25.610;2023-07-30T00:38:09;18.80;99.90
70986;DHT22;58645;43.068;25.610;2023-07-30T00:40:41;18.80;99.90
70986;DHT22;58645;43.068;25.610;2023-07-30T00:43:07;18.80;99.90
70986;DHT22;58645;43.068;25.610;2023-07-30T00:45:33;18.70;99.90
70986;DHT22;58645;43.068;25.610;2023-07-30T00:48:00;18.60;99.90
70986;DHT22;58645;43.068;25.610;2023-07-30T00:50:25;18.50;99.90
70986;DHT22;58645;43.068;25.610;2023-07-30T00:52:51;18.50;99.90
70986;DHT22;58645;43.068;25.610;2023-07-30T00:55:17;18.40;99.90
70986;DHT22;58645;43.068;25.610;2023-07-30T00:57:43;18.30;99.90
70986;DHT22;58645;43.068;25.610;2023-07-30T01:00:11;18.30;99.90
70986;DHT22;58645;43.068;25.610;2023-07-30T01:02:37;18.20;99.90
70986;DHT22;58645;43.068;25.610;2023-07-30T01:05:03;18.10;99.90
70986;DHT22;58645;43.068;25.610;2023-07-30T01:07:32;18.10;99.90
70986;DHT22;58645;43.068;25.610;2023-07-30T01:10:00;18.10;99.90
70986;DHT22;58645;43.068;25.610;2023-07-30T01:12:27;18.10;99.90
70986;DHT22;58645;43.068;25.610;2023-07-30T01:14:54;18.10;99.90
70986;DHT22;58645;43.068;25.610;2023-07-30T01:17:22;18.00;99.90
70986;DHT22;58645;43.068;25.610;2023-07-30T01:19:48;18.10;99.90
70986;DHT22;58645;43.068;25.610;2023-07-30T01:22:15;18.20;99.90
70986;DHT22;58645;43.068;25.610;2023-07-30T01:24:41;18.20;99.90
70986;DHT22;58645;43.068;25.610;2023-07-30T01:27:08;18.20;99.90
70986;DHT22;58645;43.068;25.610;2023-07-30T01:29:42;18.30;99.90
70986;DHT22;58645;43.068;25.610;2023-07-30T01:32:11;18.30;99.90
70986;DHT22;58645;43.068;25.610;2023-07-30T01:34:41;18.30;99.90
70986;DHT22;58645;43.068;25.610;2023-07-30T01:37:11;18.20;99.90
70986;DHT22;58645;43.068;25.610;2023-07-30T01:39:39;18.20;99.90
70986;DHT22;58645;43.068;25.610;2023-07-30T01:42:05;18.10;99.90
70986;DHT22;58645;43.068;25.610;2023-07-30T01:44:31;18.20;99.90
70986;DHT22;58645;43.068;25.610;2023-07-30T01:46:57;18.20;99.90
70986;DHT22;58645;43.068;25.610;2023-07-30T01:49:23;18.20;99.90
70986;DHT22;58645;43.068;25.610;2023-07-30T01:51:48;18.30;99.90
70986;DHT22;58645;43.068;25.610;2023-07-30T01:54:14;18.20;99.90
70986;DHT22;58645;43.068;25.610;2023-07-30T01:56:40;18.30;99.90
70986;DHT22;58645;43.068;25.610;2023-07-30T01:59:06;18.20;99.90
70986;DHT22;58645;43.068;25.610;2023-07-30T02:01:32;18.20;99.90
70986;DHT22;58645;43.068;25.610;2023-07-30T02:03:57;18.20;99.90
70986;DHT22;58645;43.068;25.610;2023-07-30T02:06:23;18.10;99.90
70986;DHT22;58645;43.068;25.610;2023-07-30T02:08:49;18.00;99.90
70986;DHT22;58645;43.068;25.610;2023-07-30T02:11:16;18.00;99.90
70986;DHT22;58645;43.068;25.610;2023-07-30T02:13:41;18.00;99.90
70986;DHT22;58645;43.068;25.610;2023-07-30T02:16:07;18.00;99.90
70986;DHT22;58645;43.068;25.610;2023-07-30T02:18:33;18.00;99.90
70986;DHT22;58645;43.068;25.610;2023-07-30T02:20:59;17.90;99.90
70986;DHT22;58645;43.068;25.610;2023-07-30T02:23:24;17.90;99.90
70986;DHT22;58645;43.068;25.610;2023-07-30T02:25:51;17.90;99.90
70986;DHT22;58645;43.068;25.610;2023-07-30T02:28:16;17.80;99.90
70986;DHT22;58645;43.068;25.610;2023-07-30T02:30:42;17.80;99.90
70986;DHT22;58645;43.068;25.610;2023-07-30T02:33:08;17.70;99.90
70986;DHT22;58645;43.068;25.610;2023-07-30T02:35:33;17.70;99.90
70986;DHT22;58645;43.068;25.610;2023-07-30T02:37:59;17.70;99.90
70986;DHT22;58645;43.068;25.610;2023-07-30T02:40:25;17.60;99.90
70986;DHT22;58645;43.068;25.610;2023-07-30T02:42:50;17.60;99.90
70986;DHT22;58645;43.068;25.610;2023-07-30T02:45:16;17.50;99.90
70986;DHT22;58645;43.068;25.610;2023-07-30T02:47:43;17.50;99.90
70986;DHT22;58645;43.068;25.610;2023-07-30T02:50:09;17.50;99.90
70986;DHT22;58645;43.068;25.610;2023-07-30T02:52:35;17.50;99.90
70986;DHT22;58645;43.068;25.610;2023-07-30T02:55:01;17.50;99.90
70986;DHT22;58645;43.068;25.610;2023-07-30T02:57:26;17.50;99.90
70986;DHT22;58645;43.068;25.610;2023-07-30T02:59:52;17.50;99.90
70986;DHT22;58645;43.068;25.610;2023-07-30T03:02:18;17.50;99.90
70986;DHT22;58645;43.068;25.610;2023-07-30T03:04:43;17.50;99.90
70986;DHT22;58645;43.068;25.610;2023-07-30T03:07:09;17.40;99.90
70986;DHT22;58645;43.068;25.610;2023-07-30T03:09:35;17.40;99.90
70986;DHT22;58645;43.068;25.610;2023-07-30T03:12:01;17.30;99.90
70986;DHT22;58645;43.068;25.610;2023-07-30T03:14:26;17.30;99.90
70986;DHT22;58645;43.068;25.610;2023-07-30T03:16:52;17.20;99.90
70986;DHT22;58645;43.068;25.610;2023-07-30T03:19:18;17.20;99.90
70986;DHT22;58645;43.068;25.610;2023-07-30T03:21:43;17.10;99.90
70986;DHT22;58645;43.068;25.610;2023-07-30T03:24:09;17.10;99.90
70986;DHT22;58645;43.068;25.610;2023-07-30T03:26:35;17.20;99.90
70986;DHT22;58645;43.068;25.610;2023-07-30T03:29:00;17.20;99.90
70986;DHT22;58645;43.068;25.610;2023-07-30T03:31:26;17.30;99.90
70986;DHT22;58645;43.068;25.610;2023-07-30T03:33:54;17.30;99.90
70986;DHT22;58645;43.068;25.610;2023-07-30T03:36:20;17.30;99.90
70986;DHT22;58645;43.068;25.610;2023-07-30T03:38:46;17.40;99.90
70986;DHT22;58645;43.068;25.610;2023-07-30T03:41:12;17.40;99.90
70986;DHT22;58645;43.068;25.610;2023-07-30T03:43:37;17.40;99.90
70986;DHT22;58645;43.068;25.610;2023-07-30T03:46:03;17.40;99.90
70986;DHT22;58645;43.068;25.610;2023-07-30T03:48:29;17.40;99.90
70986;DHT22;58645;43.068;25.610;2023-07-30T03:50:55;17.40;99.90
70986;DHT22;58645;43.068;25.610;2023-07-30T03:53:22;17.40;99.90
70986;DHT22;58645;43.068;25.610;2023-07-30T03:55:48;17.40;99.90
70986;DHT22;58645;43.068;25.610;2023-07-30T03:58:14;17.30;99.90
70986;DHT22;58645;43.068;25.610;2023-07-30T04:00:40;17.30;99.90
70986;DHT22;58645;43.068;25.610;2023-07-30T04:03:05;17.40;99.90
70986;DHT22;58645;43.068;25.610;2023-07-30T04:05:31;17.40;99.90
70986;DHT22;58645;43.068;25.610;2023-07-30T04:07:57;17.50;99.90
70986;DHT22;58645;43.068;25.610;2023-07-30T04:10:23;17.60;99.90
70986;DHT22;58645;43.068;25.610;2023-07-30T04:12:49;17.60;99.90
70986;DHT22;58645;43.068;25.610;2023-07-30T04:15:15;17.60;99.90
70986;DHT22;58645;43.068;25.610;2023-07-30T04:17:42;17.70;99.90
70986;DHT22;58645;43.068;25.610;2023-07-30T04:20:08;17.90;99.90
70986;DHT22;58645;43.068;25.610;2023-07-30T04:22:35;17.90;99.90
70986;DHT22;58645;43.068;25.610;2023-07-30T04:25:02;18.10;99.90
70986;DHT22;58645;43.068;25.610;2023-07-30T04:27:28;18.10;99.90
70986;DHT22;58645;43.068;25.610;2023-07-30T04:29:53;18.40;99.90
70986;DHT22;58645;43.068;25.610;2023-07-30T04:32:19;18.60;99.90
70986;DHT22;58645;43.068;25.610;2023-07-30T04:34:45;18.70;99.90
70986;DHT22;58645;43.068;25.610;2023-07-30T04:37:10;18.90;99.90
70986;DHT22;58645;43.068;25.610;2023-07-30T04:39:36;19.00;99.90
70986;DHT22;58645;43.068;25.610;2023-07-30T04:42:03;19.20;99.90
70986;DHT22;58645;43.068;25.610;2023-07-30T04:44:29;19.30;99.90
70986;DHT22;58645;43.068;25.610;2023-07-30T04:46:54;19.30;99.90
70986;DHT22;58645;43.068;25.610;2023-07-30T04:49:20;19.30;99.90
70986;DHT22;58645;43.068;25.610;2023-07-30T04:51:46;19.30;99.90
70986;DHT22;58645;43.068;25.610;2023-07-30T04:54:11;19.40;99.90
70986;DHT22;58645;43.068;25.610;2023-07-30T04:56:37;19.50;99.90
70986;DHT22;58645;43.068;25.610;2023-07-30T04:59:03;19.70;99.90
70986;DHT22;58645;43.068;25.610;2023-07-30T05:01:29;19.80;99.90
70986;DHT22;58645;43.068;25.610;2023-07-30T05:03:55;19.90;99.90
70986;DHT22;58645;43.068;25.610;2023-07-30T05:06:21;20.20;99.90
70986;DHT22;58645;43.068;25.610;2023-07-30T05:08:46;20.40;99.90
70986;DHT22;58645;43.068;25.610;2023-07-30T05:11:12;20.70;99.90
70986;DHT22;58645;43.068;25.610;2023-07-30T05:13:38;21.00;99.90
70986;DHT22;58645;43.068;25.610;2023-07-30T05:16:03;21.40;99.90
70986;DHT22;58645;43.068;25.610;2023-07-30T05:18:29;21.60;99.90
70986;DHT22;58645;43.068;25.610;2023-07-30T05:20:55;21.70;99.90
70986;DHT22;58645;43.068;25.610;2023-07-30T05:23:21;21.90;99.90
70986;DHT22;58645;43.068;25.610;2023-07-30T05:25:47;22.00;99.90
70986;DHT22;58645;43.068;25.610;2023-07-30T05:28:13;22.30;99.90
70986;DHT22;58645;43.068;25.610;2023-07-30T05:30:39;22.50;99.90
70986;DHT22;58645;43.068;25.610;2023-07-30T05:33:05;22.80;99.90
70986;DHT22;58645;43.068;25.610;2023-07-30T05:35:31;23.00;97.80
70986;DHT22;58645;43.068;25.610;2023-07-30T05:37:56;23.20;97.60
70986;DHT22;58645;43.068;25.610;2023-07-30T05:40:22;23.50;95.00
70986;DHT22;58645;43.068;25.610;2023-07-30T05:42:48;23.80;92.50
70986;DHT22;58645;43.068;25.610;2023-07-30T05:45:13;24.00;90.60
70986;DHT22;58645;43.068;25.610;2023-07-30T05:47:39;24.20;89.40
70986;DHT22;58645;43.068;25.610;2023-07-30T05:50:06;24.40;87.00
70986;DHT22;58645;43.068;25.610;2023-07-30T05:52:32;24.50;83.60
70986;DHT22;58645;43.068;25.610;2023-07-30T05:54:57;24.40;82.90
70986;DHT22;58645;43.068;25.610;2023-07-30T05:57:23;24.40;82.20
70986;DHT22;58645;43.068;25.610;2023-07-30T05:59:48;24.80;82.30
70986;DHT22;58645;43.068;25.610;2023-07-30T06:02:14;25.30;80.00
70986;DHT22;58645;43.068;25.610;2023-07-30T06:04:40;25.60;77.90
70986;DHT22;58645;43.068;25.610;2023-07-30T06:07:06;25.90;75.00
70986;DHT22;58645;43.068;25.610;2023-07-30T06:09:31;26.40;73.80
70986;DHT22;58645;43.068;25.610;2023-07-30T06:11:57;26.90;71.80
70986;DHT22;58645;43.068;25.610;2023-07-30T06:14:24;27.50;70.80
70986;DHT22;58645;43.068;25.610;2023-07-30T06:16:51;27.90;68.30
70986;DHT22;58645;43.068;25.610;2023-07-30T06:19:17;28.30;66.70
70986;DHT22;58645;43.068;25.610;2023-07-30T06:21:42;28.80;65.90
70986;DHT22;58645;43.068;25.610;2023-07-30T06:24:08;29.20;63.70
70986;DHT22;58645;43.068;25.610;2023-07-30T06:26:34;29.70;61.20
70986;DHT22;58645;43.068;25.610;2023-07-30T06:29:00;30.30;59.10
70986;DHT22;58645;43.068;25.610;2023-07-30T06:31:25;30.90;58.20
70986;DHT22;58645;43.068;25.610;2023-07-30T06:33:51;31.30;56.20
70986;DHT22;58645;43.068;25.610;2023-07-30T06:36:17;31.60;53.60
70986;DHT22;58645;43.068;25.610;2023-07-30T06:38:43;32.00;53.80
70986;DHT22;58645;43.068;25.610;2023-07-30T06:41:08;32.30;52.90
70986;DHT22;58645;43.068;25.610;2023-07-30T06:43:34;32.40;50.20
70986;DHT22;58645;43.068;25.610;2023-07-30T06:46:00;32.80;49.30
70986;DHT22;58645;43.068;25.610;2023-07-30T06:48:25;33.00;48.60
70986;DHT22;58645;43.068;25.610;2023-07-30T06:50:51;33.30;47.00
70986;DHT22;58645;43.068;25.610;2023-07-30T06:53:17;33.50;47.60
70986;DHT22;58645;43.068;25.610;2023-07-30T06:55:43;33.70;44.60
70986;DHT22;58645;43.068;25.610;2023-07-30T06:58:08;34.00;45.70
70986;DHT22;58645;43.068;25.610;2023-07-30T07:00:34;34.10;42.60
70986;DHT22;58645;43.068;25.610;2023-07-30T07:03:00;34.10;41.80
70986;DHT22;58645;43.068;25.610;2023-07-30T07:05:25;34.60;42.50
70986;DHT22;58645;43.068;25.610;2023-07-30T07:07:51;34.80;40.50
70986;DHT22;58645;43.068;25.610;2023-07-30T07:10:17;34.50;40.10
70986;DHT22;58645;43.068;25.610;2023-07-30T07:12:43;34.80;41.80
70986;DHT22;58645;43.068;25.610;2023-07-30T07:15:08;35.10;40.70
70986;DHT22;58645;43.068;25.610;2023-07-30T07:17:34;35.40;38.80
70986;DHT22;58645;43.068;25.610;2023-07-30T07:20:00;35.70;37.40
70986;DHT22;58645;43.068;25.610;2023-07-30T07:22:26;35.30;36.10
70986;DHT22;58645;43.068;25.610;2023-07-30T07:24:52;35.00;35.70
70986;DHT22;58645;43.068;25.610;2023-07-30T07:27:18;35.40;32.90
70986;DHT22;58645;43.068;25.610;2023-07-30T07:29:44;35.40;33.40
70986;DHT22;58645;43.068;25.610;2023-07-30T07:32:10;35.50;33.70
70986;DHT22;58645;43.068;25.610;2023-07-30T07:34:37;35.70;36.50
70986;DHT22;58645;43.068;25.610;2023-07-30T07:37:03;36.20;34.60
70986;DHT22;58645;43.068;25.610;2023-07-30T07:39:29;36.20;34.60
70986;DHT22;58645;43.068;25.610;2023-07-30T07:41:55;36.50;33.90
70986;DHT22;58645;43.068;25.610;2023-07-30T07:44:21;36.80;33.40
70986;DHT22;58645;43.068;25.610;2023-07-30T07:46:47;37.00;33.60
70986;DHT22;58645;43.068;25.610;2023-07-30T07:49:13;37.20;33.90
70986;DHT22;58645;43.068;25.610;2023-07-30T07:51:39;37.50;33.40
70986;DHT22;58645;43.068;25.610;2023-07-30T07:54:05;37.50;31.90
70986;DHT22;58645;43.068;25.610;2023-07-30T07:56:31;37.90;32.20
70986;DHT22;58645;43.068;25.610;2023-07-30T07:58:57;38.20;30.40
70986;DHT22;58645;43.068;25.610;2023-07-30T08:01:23;37.70;30.00
70986;DHT22;58645;43.068;25.610;2023-07-30T08:03:49;37.90;32.10
70986;DHT22;58645;43.068;25.610;2023-07-30T08:06:14;38.10;30.90
70986;DHT22;58645;43.068;25.610;2023-07-30T08:08:40;38.40;30.20
70986;DHT22;58645;43.068;25.610;2023-07-30T08:11:06;38.90;29.60
70986;DHT22;58645;43.068;25.610;2023-07-30T08:13:33;39.10;30.60
70986;DHT22;58645;43.068;25.610;2023-07-30T08:15:59;39.40;29.50
70986;DHT22;58645;43.068;25.610;2023-07-30T08:18:26;39.50;28.30
70986;DHT22;58645;43.068;25.610;2023-07-30T08:20:51;39.60;27.60
70986;DHT22;58645;43.068;25.610;2023-07-30T08:23:17;39.50;28.60
70986;DHT22;58645;43.068;25.610;2023-07-30T08:25:43;39.60;27.40
70986;DHT22;58645;43.068;25.610;2023-07-30T08:28:08;39.80;26.80
70986;DHT22;58645;43.068;25.610;2023-07-30T08:30:34;39.90;26.80
70986;DHT22;58645;43.068;25.610;2023-07-30T08:33:00;39.80;25.70
70986;DHT22;58645;43.068;25.610;2023-07-30T08:35:26;39.80;25.00
70986;DHT22;58645;43.068;25.610;2023-07-30T08:37:54;39.80;25.90
70986;DHT22;58645;43.068;25.610;2023-07-30T08:40:21;39.80;25.10
70986;DHT22;58645;43.068;25.610;2023-07-30T08:42:50;39.80;24.60
70986;DHT22;58645;43.068;25.610;2023-07-30T08:45:16;39.90;24.50
70986;DHT22;58645;43.068;25.610;2023-07-30T08:47:42;39.90;24.90
70986;DHT22;58645;43.068;25.610;2023-07-30T08:50:08;39.70;24.90
70986;DHT22;58645;43.068;25.610;2023-07-30T08:52:35;40.00;25.20
70986;DHT22;58645;43.068;25.610;2023-07-30T08:55:02;40.50;24.70
70986;DHT22;58645;43.068;25.610;2023-07-30T08:57:32;40.10;24.00
70986;DHT22;58645;43.068;25.610;2023-07-30T09:00:09;40.40;24.10
70986;DHT22;58645;43.068;25.610;2023-07-30T09:02:48;40.70;23.60
70986;DHT22;58645;43.068;25.610;2023-07-30T09:05:15;41.00;24.10
70986;DHT22;58645;43.068;25.610;2023-07-30T09:07:41;41.00;23.20
70986;DHT22;58645;43.068;25.610;2023-07-30T09:10:07;40.90;24.10
70986;DHT22;58645;43.068;25.610;2023-07-30T09:12:34;40.90;24.60
70986;DHT22;58645;43.068;25.610;2023-07-30T09:15:02;41.10;22.80
70986;DHT22;58645;43.068;25.610;2023-07-30T09:17:30;41.20;23.60
70986;DHT22;58645;43.068;25.610;2023-07-30T09:19:55;41.10;21.80
70986;DHT22;58645;43.068;25.610;2023-07-30T09:22:25;41.10;22.90
70986;DHT22;58645;43.068;25.610;2023-07-30T09:24:51;40.80;21.80
70986;DHT22;58645;43.068;25.610;2023-07-30T09:27:20;40.80;23.80
70986;DHT22;58645;43.068;25.610;2023-07-30T09:29:55;40.90;22.40
70986;DHT22;58645;43.068;25.610;2023-07-30T09:32:30;41.40;23.90
70986;DHT22;58645;43.068;25.610;2023-07-30T09:35:10;41.40;21.70
70986;DHT22;58645;43.068;25.610;2023-07-30T09:37:37;41.40;21.10
70986;DHT22;58645;43.068;25.610;2023-07-30T09:40:05;41.80;20.50
70986;DHT22;58645;43.068;25.610;2023-07-30T09:42:32;42.00;21.10
70986;DHT22;58645;43.068;25.610;2023-07-30T09:45:00;41.60;20.20
70986;DHT22;58645;43.068;25.610;2023-07-30T09:47:27;41.40;19.60
70986;DHT22;58645;43.068;25.610;2023-07-30T09:49:53;41.50;19.80
70986;DHT22;58645;43.068;25.610;2023-07-30T09:52:21;41.90;21.20
70986;DHT22;58645;43.068;25.610;2023-07-30T09:54:51;41.70;19.60
70986;DHT22;58645;43.068;25.610;2023-07-30T09:57:17;41.90;20.10
70986;DHT22;58645;43.068;25.610;2023-07-30T09:59:43;42.00;19.70
70986;DHT22;58645;43.068;25.610;2023-07-30T10:02:10;42.20;20.40
70986;DHT22;58645;43.068;25.610;2023-07-30T10:04:41;42.40;20.40
70986;DHT22;58645;43.068;25.610;2023-07-30T10:07:12;42.40;19.50
70986;DHT22;58645;43.068;25.610;2023-07-30T10:09:41;42.30;17.50
70986;DHT22;58645;43.068;25.610;2023-07-30T10:12:14;42.30;19.20
70986;DHT22;58645;43.068;25.610;2023-07-30T10:14:41;42.40;18.40
70986;DHT22;58645;43.068;25.610;2023-07-30T10:17:10;42.10;16.90
70986;DHT22;58645;43.068;25.610;2023-07-30T10:19:36;42.20;18.00
70986;DHT22;58645;43.068;25.610;2023-07-30T10:24:59;42.00;17.90
70986;DHT22;58645;43.068;25.610;2023-07-30T10:27:26;42.00;18.60
70986;DHT22;58645;43.068;25.610;2023-07-30T10:30:31;42.00;19.10
70986;DHT22;58645;43.068;25.610;2023-07-30T10:33:04;41.60;18.80
70986;DHT22;58645;43.068;25.610;2023-07-30T10:35:43;41.30;19.60
70986;DHT22;58645;43.068;25.610;2023-07-30T10:38:19;41.50;18.50
70986;DHT22;58645;43.068;25.610;2023-07-30T10:41:04;41.50;19.30
70986;DHT22;58645;43.068;25.610;2023-07-30T10:43:32;41.60;19.50
70986;DHT22;58645;43.068;25.610;2023-07-30T10:45:59;41.60;19.40
70986;DHT22;58645;43.068;25.610;2023-07-30T10:48:32;41.50;18.00
70986;DHT22;58645;43.068;25.610;2023-07-30T10:51:00;41.60;18.10
70986;DHT22;58645;43.068;25.610;2023-07-30T10:53:26;41.60;17.70
70986;DHT22;58645;43.068;25.610;2023-07-30T10:55:52;41.70;17.80
70986;DHT22;58645;43.068;25.610;2023-07-30T10:58:18;41.70;19.00
70986;DHT22;58645;43.068;25.610;2023-07-30T11:00:44;41.90;17.30
70986;DHT22;58645;43.068;25.610;2023-07-30T11:03:10;41.80;18.10
70986;DHT22;58645;43.068;25.610;2023-07-30T11:05:38;41.40;17.80
70986;DHT22;58645;43.068;25.610;2023-07-30T11:08:05;41.70;20.40
70986;DHT22;58645;43.068;25.610;2023-07-30T11:10:30;42.00;19.80
70986;DHT22;58645;43.068;25.610;2023-07-30T11:12:57;42.30;19.20
70986;DHT22;58645;43.068;25.610;2023-07-30T11:15:24;41.90;17.20
70986;DHT22;58645;43.068;25.610;2023-07-30T11:17:52;42.00;18.80
70986;DHT22;58645;43.068;25.610;2023-07-30T11:20:27;41.80;17.10
70986;DHT22;58645;43.068;25.610;2023-07-30T11:22:55;41.80;18.80
70986;DHT22;58645;43.068;25.610;2023-07-30T11:25:21;41.60;16.50
70986;DHT22;58645;43.068;25.610;2023-07-30T11:27:48;41.70;19.60
70986;DHT22;58645;43.068;25.610;2023-07-30T11:30:14;41.60;17.20
70986;DHT22;58645;43.068;25.610;2023-07-30T11:32:43;41.70;16.80
70986;DHT22;58645;43.068;25.610;2023-07-30T11:35:13;41.70;16.40
70986;DHT22;58645;43.068;25.610;2023-07-30T11:37:40;41.80;17.50
70986;DHT22;58645;43.068;25.610;2023-07-30T11:40:10;41.60;17.80
70986;DHT22;58645;43.068;25.610;2023-07-30T11:42:36;41.70;18.30
70986;DHT22;58645;43.068;25.610;2023-07-30T11:47:44;41.80;19.30
70986;DHT22;58645;43.068;25.610;2023-07-30T11:50:10;42.00;20.30
70986;DHT22;58645;43.068;25.610;2023-07-30T11:52:36;41.80;18.70
70986;DHT22;58645;43.068;25.610;2023-07-30T11:55:03;41.60;19.40
70986;DHT22;58645;43.068;25.610;2023-07-30T11:57:36;41.70;19.80
70986;DHT22;58645;43.068;25.610;2023-07-30T12:00:02;41.80;19.20
70986;DHT22;58645;43.068;25.610;2023-07-30T12:02:29;41.80;17.90
70986;DHT22;58645;43.068;25.610;2023-07-30T12:04:55;41.70;18.10
70986;DHT22;58645;43.068;25.610;2023-07-30T12:07:24;41.70;19.20
70986;DHT22;58645;43.068;25.610;2023-07-30T12:09:50;41.70;19.70
70986;DHT22;58645;43.068;25.610;2023-07-30T12:12:16;41.80;19.20
70986;DHT22;58645;43.068;25.610;2023-07-30T12:17:09;41.30;19.60
70986;DHT22;58645;43.068;25.610;2023-07-30T12:19:34;41.00;19.70
70986;DHT22;58645;43.068;25.610;2023-07-30T12:22:03;40.90;19.40
70986;DHT22;58645;43.068;25.610;2023-07-30T12:24:29;40.70;21.20
70986;DHT22;58645;43.068;25.610;2023-07-30T12:26:54;40.40;21.00
70986;DHT22;58645;43.068;25.610;2023-07-30T12:29:20;40.20;21.20
70986;DHT22;58645;43.068;25.610;2023-07-30T12:31:46;40.40;21.30
70986;DHT22;58645;43.068;25.610;2023-07-30T12:34:12;40.70;22.20
70986;DHT22;58645;43.068;25.610;2023-07-30T12:36:38;41.00;21.70
70986;DHT22;58645;43.068;25.610;2023-07-30T12:39:04;41.00;21.30
70986;DHT22;58645;43.068;25.610;2023-07-30T12:41:30;41.00;21.20
70986;DHT22;58645;43.068;25.610;2023-07-30T12:43:56;41.00;22.80
70986;DHT22;58645;43.068;25.610;2023-07-30T12:46:25;40.70;21.30
70986;DHT22;58645;43.068;25.610;2023-07-30T12:48:58;40.80;21.90
70986;DHT22;58645;43.068;25.610;2023-07-30T12:51:28;40.60;19.90
70986;DHT22;58645;43.068;25.610;2023-07-30T12:53:54;40.60;20.20
70986;DHT22;58645;43.068;25.610;2023-07-30T12:56:20;40.70;20.90
70986;DHT22;58645;43.068;25.610;2023-07-30T12:58:45;40.30;21.30
70986;DHT22;58645;43.068;25.610;2023-07-30T13:01:11;40.40;22.20
70986;DHT22;58645;43.068;25.610;2023-07-30T13:03:37;40.40;22.20
70986;DHT22;58645;43.068;25.610;2023-07-30T13:06:04;40.30;22.50
70986;DHT22;58645;43.068;25.610;2023-07-30T13:08:30;40.20;22.40
70986;DHT22;58645;43.068;25.610;2023-07-30T13:10:56;39.90;21.30
70986;DHT22;58645;43.068;25.610;2023-07-30T13:13:21;39.40;22.20
70986;DHT22;58645;43.068;25.610;2023-07-30T13:15:49;39.40;22.60
70986;DHT22;58645;43.068;25.610;2023-07-30T13:18:14;39.40;22.20
70986;DHT22;58645;43.068;25.610;2023-07-30T13:20:40;39.20;23.20
70986;DHT22;58645;43.068;25.610;2023-07-30T13:23:06;39.10;24.20
70986;DHT22;58645;43.068;25.610;2023-07-30T13:25:32;38.40;23.00
70986;DHT22;58645;43.068;25.610;2023-07-30T13:27:57;38.40;23.60
70986;DHT22;58645;43.068;25.610;2023-07-30T13:30:23;38.20;24.50
70986;DHT22;58645;43.068;25.610;2023-07-30T13:32:49;38.10;23.80
70986;DHT22;58645;43.068;25.610;2023-07-30T13:35:15;37.50;24.40
70986;DHT22;58645;43.068;25.610;2023-07-30T13:37:40;37.20;24.70
70986;DHT22;58645;43.068;25.610;2023-07-30T13:40:07;37.10;25.20
70986;DHT22;58645;43.068;25.610;2023-07-30T13:42:32;36.90;26.00
70986;DHT22;58645;43.068;25.610;2023-07-30T13:44:58;36.70;26.50
70986;DHT22;58645;43.068;25.610;2023-07-30T13:47:25;36.40;24.90
70986;DHT22;58645;43.068;25.610;2023-07-30T13:49:51;36.20;25.60
70986;DHT22;58645;43.068;25.610;2023-07-30T13:52:17;36.00;26.80
70986;DHT22;58645;43.068;25.610;2023-07-30T13:54:43;35.90;26.80
70986;DHT22;58645;43.068;25.610;2023-07-30T13:57:10;35.80;27.10
70986;DHT22;58645;43.068;25.610;2023-07-30T13:59:36;35.70;28.20
70986;DHT22;58645;43.068;25.610;2023-07-30T14:02:03;35.60;27.30
70986;DHT22;58645;43.068;25.610;2023-07-30T14:04:28;35.50;27.40
70986;DHT22;58645;43.068;25.610;2023-07-30T14:06:54;35.30;28.50
70986;DHT22;58645;43.068;25.610;2023-07-30T14:09:20;35.20;28.00
70986;DHT22;58645;43.068;25.610;2023-07-30T14:11:45;35.20;28.50
70986;DHT22;58645;43.068;25.610;2023-07-30T14:14:12;35.20;28.80
70986;DHT22;58645;43.068;25.610;2023-07-30T14:16:37;35.30;29.40
70986;DHT22;58645;43.068;25.610;2023-07-30T14:19:03;35.10;28.00
70986;DHT22;58645;43.068;25.610;2023-07-30T14:21:29;35.00;27.60
70986;DHT22;58645;43.068;25.610;2023-07-30T14:23:54;34.80;27.40
70986;DHT22;58645;43.068;25.610;2023-07-30T14:26:20;34.70;27.60
70986;DHT22;58645;43.068;25.610;2023-07-30T14:28:46;34.70;27.80
70986;DHT22;58645;43.068;25.610;2023-07-30T14:31:12;34.60;28.20
70986;DHT22;58645;43.068;25.610;2023-07-30T14:33:37;34.50;28.10
70986;DHT22;58645;43.068;25.610;2023-07-30T14:36:04;34.40;28.90
70986;DHT22;58645;43.068;25.610;2023-07-30T14:38:30;34.30;28.40
70986;DHT22;58645;43.068;25.610;2023-07-30T14:40:57;34.20;28.70
70986;DHT22;58645;43.068;25.610;2023-07-30T14:43:22;34.30;28.70
70986;DHT22;58645;43.068;25.610;2023-07-30T14:45:49;34.20;29.90
70986;DHT22;58645;43.068;25.610;2023-07-30T14:48:15;34.20;30.00
70986;DHT22;58645;43.068;25.610;2023-07-30T14:50:41;34.10;30.20
70986;DHT22;58645;43.068;25.610;2023-07-30T14:53:06;34.00;30.50
70986;DHT22;58645;43.068;25.610;2023-07-30T14:55:32;33.90;30.30
70986;DHT22;58645;43.068;25.610;2023-07-30T14:57:58;33.80;29.80
70986;DHT22;58645;43.068;25.610;2023-07-30T15:00:23;33.80;30.10
70986;DHT22;58645;43.068;25.610;2023-07-30T15:02:51;33.80;29.80
70986;DHT22;58645;43.068;25.610;2023-07-30T15:05:18;33.90;29.90
70986;DHT22;58645;43.068;25.610;2023-07-30T15:07:44;33.90;29.90
70986;DHT22;58645;43.068;25.610;2023-07-30T15:10:10;33.90;30.50
70986;DHT22;58645;43.068;25.610;2023-07-30T15:12:36;33.90;30.20
70986;DHT22;58645;43.068;25.610;2023-07-30T15:15:03;34.00;31.60
70986;DHT22;58645;43.068;25.610;2023-07-30T15:17:29;33.90;30.80
70986;DHT22;58645;43.068;25.610;2023-07-30T15:19:55;33.90;31.30